createdAt,value
2022-09-06T00:02:20.162Z,15.60
2022-09-06T00:04:46.974Z,15.60
2022-09-06T00:07:13.801Z,15.50
2022-09-06T00:09:40.976Z,15.80
2022-09-06T00:12:08.003Z,15.40
2022-09-06T00:14:34.671Z,15.40
2022-09-06T00:17:01.577Z,15.30
2022-09-06T00:19:28.252Z,15.10
2022-09-06T00:21:54.930Z,15.00
2022-09-06T00:24:21.605Z,15.30
2022-09-06T00:26:48.310Z,15.10
2022-09-06T00:29:15.075Z,15.00
2022-09-06T00:31:41.837Z,15.10
2022-09-06T00:34:08.665Z,15.30
2022-09-06T00:36:35.555Z,15.40
2022-09-06T00:39:02.699Z,15.30
2022-09-06T00:41:29.654Z,15.10
2022-09-06T00:43:56.445Z,15.20
2022-09-06T00:46:31.041Z,15.20
2022-09-06T00:49:06.233Z,15.20
2022-09-06T00:51:35.462Z,15.20
2022-09-06T00:54:04.568Z,15.50
2022-09-06T00:56:33.210Z,15.40
2022-09-06T00:59:01.011Z,16.00
2022-09-06T01:01:28.082Z,16.10
2022-09-06T01:03:55.164Z,15.50
2022-09-06T01:06:28.231Z,15.30
2022-09-06T01:09:23.607Z,15.40
2022-09-06T01:11:59.341Z,15.20
2022-09-06T01:14:45.090Z,15.10
2022-09-06T01:17:25.937Z,15.00
2022-09-06T01:20:23.724Z,15.00
2022-09-06T01:23:35.685Z,15.10
2022-09-06T01:26:11.045Z,15.00
2022-09-06T01:28:45.605Z,14.90
2022-09-06T01:31:18.532Z,14.70
2022-09-06T01:34:00.229Z,14.80
2022-09-06T01:36:32.781Z,14.90
2022-09-06T01:38:59.466Z,15.10
2022-09-06T01:41:26.548Z,15.40
2022-09-06T01:43:55.511Z,14.90
2022-09-06T01:46:31.433Z,14.90
2022-09-06T01:49:04.271Z,14.80
2022-09-06T01:51:42.582Z,15.20
2022-09-06T01:54:39.799Z,15.00
2022-09-06T01:57:18.702Z,15.00
2022-09-06T02:00:08.975Z,15.10
2022-09-06T02:03:00.093Z,15.20
2022-09-06T02:05:53.236Z,15.30
2022-09-06T02:08:32.576Z,15.30
2022-09-06T02:11:02.456Z,15.30
2022-09-06T02:13:52.343Z,15.30
2022-09-06T02:16:23.417Z,15.30
2022-09-06T02:18:56.191Z,15.20
2022-09-06T02:21:29.672Z,15.00
2022-09-06T02:24:00.574Z,14.80
2022-09-06T02:26:30.412Z,16.20
2022-09-06T02:28:57.588Z,14.90
2022-09-06T02:31:41.764Z,15.00
2022-09-06T02:34:11.015Z,14.90
2022-09-06T02:36:38.117Z,15.20
2022-09-06T02:39:05.830Z,15.20
2022-09-06T02:41:33.369Z,14.80
2022-09-06T02:44:00.074Z,14.90
2022-09-06T02:46:26.853Z,14.60
2022-09-06T02:48:53.744Z,14.60
2022-09-06T02:51:20.735Z,14.70
2022-09-06T02:53:47.820Z,15.60
2022-09-06T02:56:14.664Z,15.20
2022-09-06T02:58:41.771Z,14.70
2022-09-06T03:01:09.101Z,14.90
2022-09-06T03:03:36.043Z,14.70
2022-09-06T03:06:02.787Z,15.20
2022-09-06T03:08:33.558Z,14.70
2022-09-06T03:11:01.189Z,15.40
2022-09-06T03:13:27.925Z,15.00
2022-09-06T03:15:56.987Z,15.00
2022-09-06T03:18:25.237Z,15.00
2022-09-06T03:20:53.183Z,15.00
2022-09-06T03:23:21.764Z,15.30
2022-09-06T03:25:48.447Z,15.00
2022-09-06T03:28:15.543Z,15.50
2022-09-06T03:30:47.684Z,14.80
2022-09-06T03:33:15.199Z,14.80
2022-09-06T03:35:51.711Z,14.80
2022-09-06T03:38:18.749Z,14.80
2022-09-06T03:40:49.151Z,15.20
2022-09-06T03:43:17.551Z,15.00
2022-09-06T03:45:49.171Z,15.40
2022-09-06T03:48:17.212Z,15.00
2022-09-06T03:50:53.121Z,15.20
2022-09-06T03:53:20.866Z,15.20
2022-09-06T03:55:49.714Z,15.00
2022-09-06T03:58:18.479Z,15.00
2022-09-06T04:00:45.701Z,15.00
2022-09-06T04:03:13.126Z,15.70
2022-09-06T04:05:40.010Z,15.30
2022-09-06T04:08:06.740Z,15.10
2022-09-06T04:10:33.904Z,15.00
2022-09-06T04:13:00.811Z,15.20
2022-09-06T04:15:28.632Z,15.20
2022-09-06T04:17:55.558Z,15.20
2022-09-06T04:20:22.350Z,15.10
2022-09-06T04:22:49.069Z,15.20
2022-09-06T04:25:15.824Z,15.40
2022-09-06T04:27:42.475Z,15.20
2022-09-06T04:30:09.620Z,15.10
2022-09-06T04:32:36.285Z,15.20
2022-09-06T04:35:03.174Z,15.10
2022-09-06T04:37:29.861Z,15.20
2022-09-06T04:39:56.857Z,15.80
2022-09-06T04:42:23.570Z,15.20
2022-09-06T04:44:50.289Z,15.40
2022-09-06T04:47:19.276Z,15.40
2022-09-06T04:49:46.866Z,15.40
2022-09-06T04:52:13.645Z,15.50
2022-09-06T04:54:40.351Z,15.50
2022-09-06T04:57:07.069Z,15.60
2022-09-06T04:59:34.019Z,15.40
2022-09-06T05:02:00.721Z,15.20
2022-09-06T05:04:27.440Z,15.10
2022-09-06T05:07:09.578Z,15.00
2022-09-06T05:09:36.865Z,15.10
2022-09-06T05:12:03.918Z,15.00
2022-09-06T05:14:31.068Z,15.00
2022-09-06T05:16:58.225Z,15.10
2022-09-06T05:19:25.170Z,15.20
2022-09-06T05:21:52.330Z,15.40
2022-09-06T05:24:19.316Z,15.50
2022-09-06T05:26:46.054Z,16.00
2022-09-06T05:29:13.069Z,15.50
2022-09-06T05:31:39.896Z,15.70
2022-09-06T05:34:06.698Z,16.50
2022-09-06T05:36:33.765Z,15.60
2022-09-06T05:39:00.539Z,15.90
2022-09-06T05:41:27.772Z,16.30
2022-09-06T05:43:54.503Z,16.40
2022-09-06T05:46:21.476Z,16.00
2022-09-06T05:48:56.216Z,15.80
2022-09-06T05:51:22.948Z,15.80
2022-09-06T05:53:49.891Z,15.90
2022-09-06T05:56:17.787Z,15.90
2022-09-06T05:58:44.640Z,16.10
2022-09-06T06:01:30.021Z,16.20
2022-09-06T06:03:57.980Z,16.30
2022-09-06T06:06:26.718Z,16.40
2022-09-06T06:08:53.680Z,16.50
2022-09-06T06:11:20.928Z,16.90
2022-09-06T06:13:47.648Z,17.00
2022-09-06T06:16:16.669Z,16.60
2022-09-06T06:18:47.660Z,16.80
2022-09-06T06:21:21.911Z,17.00
2022-09-06T06:23:54.891Z,16.90
2022-09-06T06:26:21.832Z,16.90
2022-09-06T06:28:49.222Z,17.20
2022-09-06T06:31:16.564Z,17.30
2022-09-06T06:33:44.438Z,17.30
2022-09-06T06:36:14.334Z,17.30
2022-09-06T06:38:43.070Z,17.70
2022-09-06T06:41:12.099Z,17.50
2022-09-06T06:43:39.039Z,17.60
2022-09-06T06:46:07.432Z,17.60
2022-09-06T06:48:40.588Z,17.70
2022-09-06T06:51:09.014Z,17.80
2022-09-06T06:53:35.923Z,17.80
2022-09-06T06:56:20.285Z,17.90
2022-09-06T06:58:48.862Z,17.90
2022-09-06T07:01:16.962Z,18.00
2022-09-06T07:03:44.561Z,18.10
2022-09-06T07:06:12.108Z,18.40
2022-09-06T07:08:40.037Z,18.20
2022-09-06T07:11:08.589Z,18.30
2022-09-06T07:13:35.613Z,18.30
2022-09-06T07:16:18.083Z,18.40
2022-09-06T07:18:45.924Z,18.30
2022-09-06T07:24:06.225Z,18.20
2022-09-06T07:26:34.621Z,18.30
2022-09-06T07:29:03.244Z,18.40
2022-09-06T07:34:18.044Z,18.60
2022-09-06T07:36:44.856Z,18.90
2022-09-06T07:39:11.492Z,18.80
2022-09-06T07:41:38.212Z,19.30
2022-09-06T07:44:04.875Z,19.00
2022-09-06T07:46:31.664Z,19.20
2022-09-06T07:48:58.437Z,19.40
2022-09-06T07:51:25.167Z,19.30
2022-09-06T07:54:12.935Z,19.50
2022-09-06T07:56:42.067Z,19.60
2022-09-06T07:59:09.348Z,19.70
2022-09-06T08:01:38.494Z,19.70
2022-09-06T08:04:08.566Z,19.80
2022-09-06T08:09:25.179Z,20.00
2022-09-06T08:11:52.907Z,19.90
2022-09-06T08:14:20.361Z,19.80
2022-09-06T08:16:47.417Z,19.80
2022-09-06T08:19:14.207Z,19.90
2022-09-06T08:21:42.111Z,19.70
2022-09-06T08:24:12.201Z,19.90
2022-09-06T08:26:43.153Z,20.00
2022-09-06T08:29:11.462Z,20.00
2022-09-06T08:31:40.578Z,20.20
2022-09-06T08:34:07.643Z,20.20
2022-09-06T08:36:34.833Z,20.20
2022-09-06T08:39:04.299Z,20.30
2022-09-06T08:41:57.791Z,20.30
2022-09-06T08:47:20.222Z,20.60
2022-09-06T08:50:07.454Z,20.80
2022-09-06T08:53:17.509Z,20.80
2022-09-06T08:56:04.366Z,21.00
2022-09-06T08:58:57.483Z,21.00
2022-09-06T09:01:29.963Z,21.20
2022-09-06T09:03:58.910Z,21.30
2022-09-06T09:06:27.306Z,21.40
2022-09-06T09:09:13.355Z,21.40
2022-09-06T09:11:43.748Z,21.40
2022-09-06T09:14:27.944Z,21.40
2022-09-06T09:16:58.975Z,21.40
2022-09-06T09:19:25.732Z,21.50
2022-09-06T09:21:52.509Z,21.70
2022-09-06T09:24:19.209Z,21.80
2022-09-06T09:26:51.919Z,21.90
2022-09-06T09:29:21.695Z,22.00
2022-09-06T09:31:54.168Z,21.90
2022-09-06T09:34:41.297Z,21.90
2022-09-06T09:40:01.476Z,21.80
2022-09-06T09:42:35.562Z,21.80
2022-09-06T09:45:22.749Z,21.70
2022-09-06T09:47:49.574Z,21.80
2022-09-06T09:50:35.657Z,21.80
2022-09-06T09:53:15.192Z,21.70
2022-09-06T09:55:42.338Z,21.80
2022-09-06T09:58:27.680Z,21.90
2022-09-06T10:01:16.245Z,22.10
2022-09-06T10:09:30.146Z,22.50
2022-09-06T10:11:59.310Z,22.50
2022-09-06T10:14:30.638Z,22.40
2022-09-06T10:16:59.064Z,22.50
2022-09-06T10:19:42.429Z,22.70
2022-09-06T10:22:26.212Z,22.80
2022-09-06T10:25:01.984Z,22.90
2022-09-06T10:27:28.967Z,22.90
2022-09-06T10:30:02.958Z,23.00
2022-09-06T10:32:40.273Z,23.10
2022-09-06T10:35:31.637Z,23.20
2022-09-06T10:38:25.009Z,23.20
2022-09-06T10:41:09.771Z,23.20
2022-09-06T10:44:02.974Z,23.30
2022-09-06T10:46:32.411Z,23.30
2022-09-06T10:48:59.870Z,23.20
2022-09-06T10:51:34.960Z,23.20
2022-09-06T10:54:12.166Z,23.30
2022-09-06T10:56:43.850Z,23.30
2022-09-06T10:59:36.968Z,23.50
2022-09-06T11:02:30.210Z,23.50
2022-09-06T11:10:55.581Z,23.90
2022-09-06T11:13:26.764Z,24.00
2022-09-06T11:16:08.791Z,23.90
2022-09-06T11:18:51.804Z,23.90
2022-09-06T11:21:40.385Z,23.90
2022-09-06T11:24:11.163Z,23.90
2022-09-06T11:26:59.621Z,23.70
2022-09-06T11:29:29.043Z,23.60
2022-09-06T11:32:18.134Z,23.70
2022-09-06T11:34:55.091Z,23.60
2022-09-06T11:37:28.315Z,23.60
2022-09-06T11:42:56.990Z,23.70
2022-09-06T11:45:51.604Z,23.60
2022-09-06T11:48:24.472Z,23.50
2022-09-06T11:50:54.174Z,23.40
2022-09-06T11:53:23.952Z,23.40
2022-09-06T11:56:10.419Z,23.50
2022-09-06T11:58:40.143Z,23.50
2022-09-06T12:01:13.154Z,23.30
2022-09-06T12:06:41.483Z,23.30
2022-09-06T12:09:38.372Z,23.30
2022-09-06T12:12:05.505Z,23.30
2022-09-06T12:14:46.106Z,23.20
2022-09-06T12:17:12.783Z,23.20
2022-09-06T12:20:06.921Z,23.10
2022-09-06T12:22:33.825Z,23.10
2022-09-06T12:25:35.993Z,23.00
2022-09-06T12:28:05.070Z,22.80
2022-09-06T12:30:36.098Z,22.70
2022-09-06T12:33:17.951Z,22.70
2022-09-06T12:38:24.754Z,22.80
2022-09-06T12:40:56.318Z,22.80
2022-09-06T12:43:23.112Z,22.80
2022-09-06T12:45:52.173Z,22.80
2022-09-06T12:48:30.886Z,22.90
2022-09-06T12:51:16.298Z,22.90
2022-09-06T12:54:00.713Z,22.80
2022-09-06T12:56:30.011Z,22.80
2022-09-06T12:59:14.281Z,22.70
2022-09-06T13:01:49.785Z,22.70
2022-09-06T13:04:47.156Z,22.60
2022-09-06T13:07:17.526Z,22.60
2022-09-06T13:09:49.001Z,22.70
2022-09-06T13:12:36.793Z,22.70
2022-09-06T13:15:25.294Z,22.90
2022-09-06T13:17:54.016Z,23.00
2022-09-06T13:20:30.187Z,23.10
2022-09-06T13:23:12.440Z,23.30
2022-09-06T13:25:50.797Z,23.30
2022-09-06T13:28:26.019Z,23.40
2022-09-06T13:31:18.821Z,23.40
2022-09-06T13:33:54.530Z,23.30
2022-09-06T13:36:24.743Z,23.20
2022-09-06T13:38:51.445Z,23.20
2022-09-06T13:41:27.512Z,23.20
2022-09-06T13:44:19.843Z,23.30
2022-09-06T13:46:46.994Z,23.30
2022-09-06T13:49:14.524Z,23.30
2022-09-06T13:51:43.351Z,23.40
2022-09-06T13:54:14.137Z,23.40
2022-09-06T13:56:42.622Z,23.40
2022-09-06T13:59:12.241Z,23.30
2022-09-06T14:01:41.470Z,23.30
2022-09-06T14:04:14.295Z,23.30
2022-09-06T14:06:41.283Z,23.40
2022-09-06T14:09:09.109Z,23.20
2022-09-06T14:11:36.832Z,23.10
2022-09-06T14:14:04.103Z,23.30
2022-09-06T14:16:31.592Z,23.40
2022-09-06T14:18:58.548Z,23.30
2022-09-06T14:21:26.345Z,23.30
2022-09-06T14:23:53.450Z,23.20
2022-09-06T14:26:21.591Z,23.20
2022-09-06T14:28:49.046Z,23.20
2022-09-06T14:31:19.499Z,23.20
2022-09-06T14:33:46.837Z,23.00
2022-09-06T14:36:16.158Z,22.90
2022-09-06T14:38:44.434Z,22.80
2022-09-06T14:41:14.475Z,22.70
2022-09-06T14:43:47.597Z,22.70
2022-09-06T14:46:15.452Z,22.70
2022-09-06T14:48:43.184Z,22.70
2022-09-06T14:51:24.019Z,22.90
2022-09-06T14:53:56.673Z,23.10
2022-09-06T14:56:24.361Z,23.20
2022-09-06T14:58:51.126Z,23.10
2022-09-06T15:01:21.045Z,23.20
2022-09-06T15:03:53.994Z,23.20
2022-09-06T15:06:22.822Z,22.90
2022-09-06T15:08:50.524Z,22.90
2022-09-06T15:11:35.228Z,22.70
2022-09-06T15:14:24.691Z,22.70
2022-09-06T15:16:55.826Z,22.70
2022-09-06T15:19:24.887Z,22.90
2022-09-06T15:21:51.659Z,23.00
2022-09-06T15:24:18.631Z,23.00
2022-09-06T15:26:46.143Z,23.00
2022-09-06T15:29:14.043Z,22.90
2022-09-06T15:31:42.092Z,22.70
2022-09-06T15:34:09.986Z,22.80
2022-09-06T15:36:37.644Z,22.60
2022-09-06T15:39:05.458Z,22.60
2022-09-06T15:41:35.601Z,22.50
2022-09-06T15:44:11.792Z,22.50
2022-09-06T15:46:47.272Z,22.50
2022-09-06T15:49:17.280Z,22.40
2022-09-06T15:51:44.794Z,22.40
2022-09-06T15:54:13.117Z,22.50
2022-09-06T15:56:40.402Z,22.30
2022-09-06T15:59:07.236Z,22.30
2022-09-06T16:01:34.277Z,22.30
2022-09-06T16:04:08.646Z,22.30
2022-09-06T16:06:42.541Z,22.20
2022-09-06T16:09:14.038Z,22.40
2022-09-06T16:11:41.880Z,22.60
2022-09-06T16:14:11.488Z,22.60
2022-09-06T16:16:39.782Z,22.70
2022-09-06T16:19:07.233Z,22.60
2022-09-06T16:21:36.994Z,22.80
2022-09-06T16:24:06.855Z,23.30
2022-09-06T16:26:37.136Z,23.80
2022-09-06T16:29:05.749Z,24.00
2022-09-06T16:31:40.107Z,24.00
2022-09-06T16:34:08.659Z,23.70
2022-09-06T16:36:35.511Z,23.70
2022-09-06T16:39:02.250Z,23.70
2022-09-06T16:41:32.678Z,23.50
2022-09-06T16:43:59.506Z,23.30
2022-09-06T16:46:28.885Z,23.40
2022-09-06T16:49:01.529Z,23.00
2022-09-06T16:51:29.477Z,23.00
2022-09-06T16:53:56.902Z,23.10
2022-09-06T16:56:26.866Z,23.10
2022-09-06T16:58:55.835Z,23.00
2022-09-06T17:01:24.014Z,23.10
2022-09-06T17:03:51.467Z,22.80
2022-09-06T17:06:19.450Z,22.70
2022-09-06T17:08:46.741Z,22.50
2022-09-06T17:11:19.200Z,22.60
2022-09-06T17:13:47.819Z,22.30
2022-09-06T17:16:33.702Z,22.10
2022-09-06T17:19:02.033Z,22.10
2022-09-06T17:21:30.302Z,22.00
2022-09-06T17:23:59.285Z,21.80
2022-09-06T17:26:26.010Z,21.70
2022-09-06T17:28:52.874Z,21.50
2022-09-06T17:31:25.029Z,21.40
2022-09-06T17:33:53.577Z,21.30
2022-09-06T17:36:23.726Z,21.20
2022-09-06T17:38:53.503Z,21.10
2022-09-06T17:41:27.474Z,21.00
2022-09-06T17:43:55.317Z,20.90
2022-09-06T17:46:28.538Z,20.80
2022-09-06T17:48:56.099Z,20.70
2022-09-06T17:51:23.198Z,20.60
2022-09-06T17:53:50.409Z,20.70
2022-09-06T17:56:19.070Z,20.50
2022-09-06T17:59:15.736Z,20.50
2022-09-06T18:01:44.532Z,20.30
2022-09-06T18:04:12.511Z,20.40
2022-09-06T18:06:41.658Z,20.30
2022-09-06T18:09:12.739Z,20.20
2022-09-06T18:11:40.077Z,20.10
2022-09-06T18:14:11.899Z,19.90
2022-09-06T18:16:40.399Z,19.80
2022-09-06T18:19:08.434Z,19.80
2022-09-06T18:21:37.550Z,19.70
2022-09-06T18:24:05.238Z,19.60
2022-09-06T18:26:32.373Z,19.50
2022-09-06T18:28:59.482Z,19.50
2022-09-06T18:31:27.718Z,19.40
2022-09-06T18:33:58.940Z,19.30
2022-09-06T18:36:31.184Z,19.10
2022-09-06T18:39:04.936Z,19.00
2022-09-06T18:41:51.519Z,19.10
2022-09-06T18:44:18.454Z,19.00
2022-09-06T18:46:45.387Z,19.00
2022-09-06T18:49:14.174Z,19.20
2022-09-06T18:51:41.642Z,19.00
2022-09-06T18:54:10.107Z,18.80
2022-09-06T18:56:36.960Z,18.80
2022-09-06T18:59:05.208Z,18.80
2022-09-06T19:01:32.950Z,18.80
2022-09-06T19:04:01.255Z,18.90
2022-09-06T19:06:29.983Z,18.70
2022-09-06T19:09:01.819Z,18.60
2022-09-06T19:11:29.223Z,18.80
2022-09-06T19:13:57.160Z,18.80
2022-09-06T19:16:25.946Z,18.70
2022-09-06T19:18:57.009Z,18.80
2022-09-06T19:21:25.527Z,18.80
2022-09-06T19:23:58.653Z,18.70
2022-09-06T19:26:29.314Z,18.70
2022-09-06T19:29:02.056Z,18.60
2022-09-06T19:31:31.851Z,18.50
2022-09-06T19:33:59.095Z,18.40
2022-09-06T19:36:27.811Z,18.50
2022-09-06T19:39:03.708Z,18.30
2022-09-06T19:41:35.780Z,18.30
2022-09-06T19:44:05.463Z,18.30
2022-09-06T19:46:32.335Z,18.30
2022-09-06T19:49:00.527Z,18.30
2022-09-06T19:51:27.400Z,18.30
2022-09-06T19:53:59.975Z,18.30
2022-09-06T19:56:33.329Z,18.30
2022-09-06T19:59:06.046Z,18.10
2022-09-06T20:01:34.705Z,17.90
2022-09-06T20:04:03.792Z,17.70
2022-09-06T20:06:31.490Z,17.70
2022-09-06T20:09:00.011Z,17.80
2022-09-06T20:11:29.250Z,17.80
2022-09-06T20:13:56.161Z,17.90
2022-09-06T20:16:24.823Z,18.60
2022-09-06T20:18:52.674Z,18.10
2022-09-06T20:21:20.988Z,18.00
2022-09-06T20:23:52.428Z,17.90
2022-09-06T20:26:20.082Z,18.00
2022-09-06T20:28:47.419Z,18.00
2022-09-06T20:31:16.761Z,18.00
2022-09-06T20:33:49.205Z,17.70
2022-09-06T20:36:17.667Z,17.60
2022-09-06T20:38:45.981Z,17.70
2022-09-06T20:41:18.562Z,17.80
2022-09-06T20:43:46.518Z,17.90
2022-09-06T20:46:18.838Z,18.00
2022-09-06T20:48:46.572Z,18.00
2022-09-06T20:51:19.459Z,18.10
2022-09-06T20:53:48.806Z,17.90
2022-09-06T20:56:18.227Z,17.90
2022-09-06T20:58:53.439Z,18.00
2022-09-06T21:01:23.000Z,18.00
2022-09-06T21:03:52.464Z,17.90
2022-09-06T21:06:20.577Z,18.50
2022-09-06T21:08:48.865Z,17.90
2022-09-06T21:11:15.948Z,18.00
2022-09-06T21:13:42.707Z,18.00
2022-09-06T21:16:09.736Z,18.10
2022-09-06T21:18:36.822Z,18.20
2022-09-06T21:21:06.891Z,18.10
2022-09-06T21:23:36.337Z,18.20
2022-09-06T21:26:11.166Z,18.20
2022-09-06T21:28:41.707Z,18.20
2022-09-06T21:31:11.872Z,18.20
2022-09-06T21:33:44.215Z,18.20
2022-09-06T21:36:13.961Z,18.20
2022-09-06T21:38:43.009Z,18.20
2022-09-06T21:41:11.357Z,18.20
2022-09-06T21:43:38.667Z,18.10
2022-09-06T21:46:08.118Z,18.10
2022-09-06T21:48:39.171Z,18.20
2022-09-06T21:51:10.216Z,18.00
2022-09-06T21:53:37.663Z,18.00
2022-09-06T21:56:05.525Z,18.00
2022-09-06T21:58:33.111Z,18.00
2022-09-06T22:01:01.481Z,18.10
2022-09-06T22:03:31.014Z,17.90
2022-09-06T22:05:58.532Z,18.00
2022-09-06T22:08:26.000Z,18.00
2022-09-06T22:10:52.851Z,18.00
2022-09-06T22:13:20.373Z,17.90
2022-09-06T22:15:47.342Z,17.80
2022-09-06T22:18:14.110Z,18.00
2022-09-06T22:20:40.849Z,18.50
2022-09-06T22:23:08.375Z,17.90
2022-09-06T22:25:35.375Z,18.30
2022-09-06T22:28:02.252Z,18.00
2022-09-06T22:30:29.168Z,18.00
2022-09-06T22:32:56.148Z,17.80
2022-09-06T22:35:22.878Z,17.90
2022-09-06T22:37:50.140Z,18.10
2022-09-06T22:40:16.912Z,17.90
2022-09-06T22:42:43.643Z,18.00
2022-09-06T22:45:10.562Z,18.10
2022-09-06T22:47:37.231Z,18.10
2022-09-06T22:50:04.298Z,18.10
2022-09-06T22:52:31.048Z,18.10
2022-09-06T22:54:57.740Z,18.70
2022-09-06T22:57:25.367Z,18.20
2022-09-06T22:59:52.071Z,18.10
2022-09-06T23:02:18.787Z,18.10
2022-09-06T23:04:46.044Z,18.30
2022-09-06T23:07:13.049Z,18.30
2022-09-06T23:09:39.933Z,18.00
2022-09-06T23:12:06.747Z,18.20
2022-09-06T23:14:33.437Z,18.00
2022-09-06T23:17:00.183Z,17.90
2022-09-06T23:19:26.870Z,18.00
2022-09-06T23:21:53.675Z,18.50
2022-09-06T23:24:20.356Z,17.80
2022-09-06T23:26:47.037Z,17.80
2022-09-06T23:29:13.776Z,17.80
2022-09-06T23:31:40.526Z,17.80
2022-09-06T23:34:07.443Z,17.70
2022-09-06T23:36:34.162Z,17.60
2022-09-06T23:39:02.342Z,17.70
2022-09-06T23:41:29.559Z,17.70
2022-09-06T23:43:56.522Z,18.00
2022-09-06T23:46:23.357Z,17.70
2022-09-06T23:48:50.259Z,17.70
2022-09-06T23:51:16.992Z,17.70
2022-09-06T23:53:43.915Z,17.80
2022-09-06T23:56:11.108Z,17.60
2022-09-06T23:58:38.711Z,17.70
